sensor_id;sensor_type;location;lat;lon;timestamp;P1;durP1;ratioP1;P2;durP2;ratioP2
40629;SDS011;26329;40.388;-3.710;2022-07-23T00:07:28;20.67;;;13.25;;
40629;SDS011;26329;40.388;-3.710;2022-07-23T00:17:29;6.18;;;2.70;;
40629;SDS011;26329;40.388;-3.710;2022-07-23T00:27:31;7.50;;;2.65;;
40629;SDS011;26329;40.388;-3.710;2022-07-23T00:37:33;4.45;;;2.05;;
40629;SDS011;26329;40.388;-3.710;2022-07-23T00:47:34;6.00;;;2.10;;
40629;SDS011;26329;40.388;-3.710;2022-07-23T00:57:37;6.97;;;2.72;;
40629;SDS011;26329;40.388;-3.710;2022-07-23T01:07:39;8.60;;;2.17;;
40629;SDS011;26329;40.388;-3.710;2022-07-23T01:17:41;3.22;;;1.83;;
40629;SDS011;26329;40.388;-3.710;2022-07-23T01:27:53;6.28;;;1.77;;
40629;SDS011;26329;40.388;-3.710;2022-07-23T01:38:00;7.00;;;1.67;;
40629;SDS011;26329;40.388;-3.710;2022-07-23T01:48:12;9.20;;;1.50;;
40629;SDS011;26329;40.388;-3.710;2022-07-23T01:58:19;27.95;;;2.80;;
40629;SDS011;26329;40.388;-3.710;2022-07-23T02:08:24;10.25;;;2.00;;
40629;SDS011;26329;40.388;-3.710;2022-07-23T02:18:29;11.75;;;2.45;;
40629;SDS011;26329;40.388;-3.710;2022-07-23T02:28:31;9.75;;;2.25;;
40629;SDS011;26329;40.388;-3.710;2022-07-23T02:38:35;12.43;;;2.17;;
40629;SDS011;26329;40.388;-3.710;2022-07-23T02:48:37;13.35;;;2.50;;
40629;SDS011;26329;40.388;-3.710;2022-07-23T02:58:39;8.52;;;1.70;;
40629;SDS011;26329;40.388;-3.710;2022-07-23T03:08:41;5.22;;;2.30;;
40629;SDS011;26329;40.388;-3.710;2022-07-23T03:18:44;9.00;;;1.50;;
40629;SDS011;26329;40.388;-3.710;2022-07-23T03:28:47;3.33;;;1.88;;
40629;SDS011;26329;40.388;-3.710;2022-07-23T03:38:49;7.57;;;1.40;;
40629;SDS011;26329;40.388;-3.710;2022-07-23T03:48:52;4.22;;;1.55;;
40629;SDS011;26329;40.388;-3.710;2022-07-23T03:58:53;4.53;;;1.50;;
40629;SDS011;26329;40.388;-3.710;2022-07-23T04:08:55;2.65;;;2.08;;
40629;SDS011;26329;40.388;-3.710;2022-07-23T04:18:57;3.88;;;2.40;;
40629;SDS011;26329;40.388;-3.710;2022-07-23T04:28:59;3.58;;;1.83;;
40629;SDS011;26329;40.388;-3.710;2022-07-23T04:39:01;6.60;;;2.38;;
40629;SDS011;26329;40.388;-3.710;2022-07-23T04:49:03;6.03;;;2.20;;
40629;SDS011;26329;40.388;-3.710;2022-07-23T04:59:29;8.23;;;2.50;;
40629;SDS011;26329;40.388;-3.710;2022-07-23T05:09:30;12.15;;;2.75;;
40629;SDS011;26329;40.388;-3.710;2022-07-23T05:19:32;6.53;;;2.72;;
40629;SDS011;26329;40.388;-3.710;2022-07-23T05:29:35;11.50;;;3.08;;
40629;SDS011;26329;40.388;-3.710;2022-07-23T05:39:37;6.00;;;2.85;;
40629;SDS011;26329;40.388;-3.710;2022-07-23T05:59:40;8.30;;;3.35;;
40629;SDS011;26329;40.388;-3.710;2022-07-23T06:09:41;10.38;;;3.17;;
40629;SDS011;26329;40.388;-3.710;2022-07-23T06:19:43;8.55;;;3.00;;
40629;SDS011;26329;40.388;-3.710;2022-07-23T06:29:45;7.88;;;2.70;;
40629;SDS011;26329;40.388;-3.710;2022-07-23T06:39:47;9.93;;;2.83;;
40629;SDS011;26329;40.388;-3.710;2022-07-23T06:49:49;7.25;;;3.10;;
40629;SDS011;26329;40.388;-3.710;2022-07-23T06:59:51;5.65;;;3.10;;
40629;SDS011;26329;40.388;-3.710;2022-07-23T07:09:53;9.40;;;3.25;;
40629;SDS011;26329;40.388;-3.710;2022-07-23T07:19:55;10.63;;;2.85;;
40629;SDS011;26329;40.388;-3.710;2022-07-23T07:29:57;17.20;;;3.65;;
40629;SDS011;26329;40.388;-3.710;2022-07-23T07:39:59;14.93;;;3.42;;
40629;SDS011;26329;40.388;-3.710;2022-07-23T07:50:01;6.45;;;2.78;;
40629;SDS011;26329;40.388;-3.710;2022-07-23T08:00:08;12.70;;;3.28;;
40629;SDS011;26329;40.388;-3.710;2022-07-23T08:10:12;8.68;;;2.85;;
40629;SDS011;26329;40.388;-3.710;2022-07-23T08:20:14;9.70;;;2.85;;
40629;SDS011;26329;40.388;-3.710;2022-07-23T08:30:18;7.32;;;2.65;;
40629;SDS011;26329;40.388;-3.710;2022-07-23T08:40:20;9.45;;;3.03;;
40629;SDS011;26329;40.388;-3.710;2022-07-23T08:50:23;9.70;;;2.95;;
40629;SDS011;26329;40.388;-3.710;2022-07-23T09:00:28;11.57;;;3.20;;
40629;SDS011;26329;40.388;-3.710;2022-07-23T09:10:36;7.90;;;2.60;;
40629;SDS011;26329;40.388;-3.710;2022-07-23T09:20:44;8.07;;;2.63;;
40629;SDS011;26329;40.388;-3.710;2022-07-23T09:31:00;6.53;;;2.30;;
40629;SDS011;26329;40.388;-3.710;2022-07-23T09:51:11;10.68;;;2.20;;
40629;SDS011;26329;40.388;-3.710;2022-07-23T10:01:17;6.60;;;2.55;;
40629;SDS011;26329;40.388;-3.710;2022-07-23T10:11:21;5.47;;;2.05;;
40629;SDS011;26329;40.388;-3.710;2022-07-23T10:21:27;11.70;;;2.90;;
40629;SDS011;26329;40.388;-3.710;2022-07-23T10:42:01;9.25;;;1.90;;
40629;SDS011;26329;40.388;-3.710;2022-07-23T11:02:20;8.77;;;4.87;;
40629;SDS011;26329;40.388;-3.710;2022-07-23T11:32:46;3.63;;;0.90;;
40629;SDS011;26329;40.388;-3.710;2022-07-23T11:42:55;3.03;;;0.88;;
40629;SDS011;26329;40.388;-3.710;2022-07-23T11:52:57;2.75;;;1.70;;
40629;SDS011;26329;40.388;-3.710;2022-07-23T12:03:00;7.07;;;0.65;;
40629;SDS011;26329;40.388;-3.710;2022-07-23T12:13:03;7.85;;;0.90;;
40629;SDS011;26329;40.388;-3.710;2022-07-23T12:23:06;4.22;;;0.80;;
40629;SDS011;26329;40.388;-3.710;2022-07-23T12:33:09;2.97;;;0.90;;
40629;SDS011;26329;40.388;-3.710;2022-07-23T12:43:19;5.63;;;0.85;;
40629;SDS011;26329;40.388;-3.710;2022-07-23T12:53:22;4.10;;;1.13;;
40629;SDS011;26329;40.388;-3.710;2022-07-23T13:13:28;1.77;;;0.40;;
40629;SDS011;26329;40.388;-3.710;2022-07-23T13:23:31;4.75;;;1.90;;
40629;SDS011;26329;40.388;-3.710;2022-07-23T13:33:33;5.93;;;0.60;;
40629;SDS011;26329;40.388;-3.710;2022-07-23T13:43:34;5.10;;;0.85;;
40629;SDS011;26329;40.388;-3.710;2022-07-23T13:53:37;3.53;;;0.52;;
40629;SDS011;26329;40.388;-3.710;2022-07-23T14:03:38;4.90;;;0.45;;
40629;SDS011;26329;40.388;-3.710;2022-07-23T14:13:41;6.00;;;0.60;;
40629;SDS011;26329;40.388;-3.710;2022-07-23T14:23:43;1.73;;;1.02;;
40629;SDS011;26329;40.388;-3.710;2022-07-23T14:33:45;7.15;;;3.38;;
40629;SDS011;26329;40.388;-3.710;2022-07-23T14:43:47;11.43;;;0.60;;
40629;SDS011;26329;40.388;-3.710;2022-07-23T14:53:50;5.47;;;0.20;;
40629;SDS011;26329;40.388;-3.710;2022-07-23T15:03:51;8.02;;;0.80;;
40629;SDS011;26329;40.388;-3.710;2022-07-23T15:13:53;4.43;;;0.22;;
40629;SDS011;26329;40.388;-3.710;2022-07-23T15:23:56;2.40;;;0.30;;
40629;SDS011;26329;40.388;-3.710;2022-07-23T15:34:03;1.15;;;0.32;;
40629;SDS011;26329;40.388;-3.710;2022-07-23T15:44:06;1.77;;;0.20;;
40629;SDS011;26329;40.388;-3.710;2022-07-23T15:54:08;3.25;;;0.20;;
40629;SDS011;26329;40.388;-3.710;2022-07-23T16:04:10;1.40;;;0.85;;
40629;SDS011;26329;40.388;-3.710;2022-07-23T16:14:12;0.73;;;0.17;;
40629;SDS011;26329;40.388;-3.710;2022-07-23T16:24:14;2.22;;;0.40;;
40629;SDS011;26329;40.388;-3.710;2022-07-23T16:34:16;1.13;;;0.20;;
40629;SDS011;26329;40.388;-3.710;2022-07-23T16:44:18;1.55;;;1.45;;
40629;SDS011;26329;40.388;-3.710;2022-07-23T16:54:20;3.65;;;1.40;;
40629;SDS011;26329;40.388;-3.710;2022-07-23T17:04:22;0.50;;;0.25;;
40629;SDS011;26329;40.388;-3.710;2022-07-23T17:14:24;0.60;;;0.30;;
40629;SDS011;26329;40.388;-3.710;2022-07-23T17:24:26;2.92;;;0.32;;
40629;SDS011;26329;40.388;-3.710;2022-07-23T17:34:28;4.75;;;0.55;;
40629;SDS011;26329;40.388;-3.710;2022-07-23T17:44:30;1.95;;;0.20;;
40629;SDS011;26329;40.388;-3.710;2022-07-23T17:54:33;1.15;;;0.13;;
40629;SDS011;26329;40.388;-3.710;2022-07-23T18:04:34;0.85;;;0.10;;
40629;SDS011;26329;40.388;-3.710;2022-07-23T18:14:36;0.65;;;0.28;;
40629;SDS011;26329;40.388;-3.710;2022-07-23T18:24:38;1.08;;;0.20;;
40629;SDS011;26329;40.388;-3.710;2022-07-23T18:34:39;2.95;;;0.28;;
40629;SDS011;26329;40.388;-3.710;2022-07-23T18:44:42;1.95;;;0.40;;
40629;SDS011;26329;40.388;-3.710;2022-07-23T18:54:44;0.88;;;0.30;;
40629;SDS011;26329;40.388;-3.710;2022-07-23T19:04:45;2.03;;;0.30;;
40629;SDS011;26329;40.388;-3.710;2022-07-23T19:14:47;3.42;;;0.90;;
40629;SDS011;26329;40.388;-3.710;2022-07-23T19:24:49;2.65;;;0.57;;
40629;SDS011;26329;40.388;-3.710;2022-07-23T19:34:51;5.05;;;0.63;;
40629;SDS011;26329;40.388;-3.710;2022-07-23T19:44:53;1.95;;;0.82;;
40629;SDS011;26329;40.388;-3.710;2022-07-23T19:54:54;2.13;;;1.95;;
40629;SDS011;26329;40.388;-3.710;2022-07-23T20:04:56;4.57;;;1.35;;
40629;SDS011;26329;40.388;-3.710;2022-07-23T20:14:58;4.68;;;1.25;;
40629;SDS011;26329;40.388;-3.710;2022-07-23T20:25:00;3.88;;;1.88;;
40629;SDS011;26329;40.388;-3.710;2022-07-23T20:35:02;9.68;;;1.83;;
40629;SDS011;26329;40.388;-3.710;2022-07-23T20:45:05;3.97;;;1.50;;
40629;SDS011;26329;40.388;-3.710;2022-07-23T20:55:07;7.00;;;2.50;;
40629;SDS011;26329;40.388;-3.710;2022-07-23T21:05:09;5.30;;;3.10;;
40629;SDS011;26329;40.388;-3.710;2022-07-23T21:15:10;6.28;;;3.15;;
40629;SDS011;26329;40.388;-3.710;2022-07-23T21:25:13;5.55;;;2.35;;
40629;SDS011;26329;40.388;-3.710;2022-07-23T21:35:16;7.28;;;2.00;;
40629;SDS011;26329;40.388;-3.710;2022-07-23T21:45:17;6.07;;;1.88;;
40629;SDS011;26329;40.388;-3.710;2022-07-23T21:55:19;3.28;;;2.60;;
40629;SDS011;26329;40.388;-3.710;2022-07-23T22:05:21;6.78;;;5.45;;
40629;SDS011;26329;40.388;-3.710;2022-07-23T22:15:24;9.13;;;3.53;;
40629;SDS011;26329;40.388;-3.710;2022-07-23T22:25:27;4.72;;;3.00;;
40629;SDS011;26329;40.388;-3.710;2022-07-23T22:35:29;3.38;;;1.80;;
40629;SDS011;26329;40.388;-3.710;2022-07-23T22:45:31;5.78;;;2.65;;
40629;SDS011;26329;40.388;-3.710;2022-07-23T22:55:33;11.60;;;8.32;;
40629;SDS011;26329;40.388;-3.710;2022-07-23T23:05:34;5.72;;;2.75;;
40629;SDS011;26329;40.388;-3.710;2022-07-23T23:15:36;2.10;;;1.40;;
40629;SDS011;26329;40.388;-3.710;2022-07-23T23:25:37;11.55;;;3.58;;
40629;SDS011;26329;40.388;-3.710;2022-07-23T23:35:40;4.72;;;2.10;;
40629;SDS011;26329;40.388;-3.710;2022-07-23T23:45:42;2.35;;;1.85;;
40629;SDS011;26329;40.388;-3.710;2022-07-23T23:55:44;7.43;;;1.90;;
